Time;durP1;ratioP1;P1;durP2;ratioP2;P2;SDS_P1;SDS_P2;PMS_P1;PMS_P2;Temp;Humidity;BMP_temperature;BMP_pressure;BME280_temperature;BME280_humidity;BME280_pressure;Samples;Min_cycle;Max_cycle;Signal;HPM_P1;HPM_P2
2022/12/05 00:00:24;;;;;;;49.25;18.80;;;;;;;5.48;100.00;100658.78;5022872;28;20130;-76
2022/12/05 00:02:49;;;;;;;55.03;20.77;;;;;;;5.51;100.00;100655.34;5022628;28;20080;-76
2022/12/05 00:05:15;;;;;;;50.38;20.63;;;;;;;5.49;100.00;100646.56;5024887;28;20041;-75
2022/12/05 00:07:40;;;;;;;52.05;20.55;;;;;;;5.52;100.00;100651.84;5023146;28;20038;-76
2022/12/05 00:10:06;;;;;;;49.28;19.00;;;;;;;5.54;100.00;100655.38;5024148;28;20045;-76
2022/12/05 00:12:31;;;;;;;47.13;20.45;;;;;;;5.54;100.00;100655.38;5020898;28;20038;-76
2022/12/05 00:14:57;;;;;;;61.53;21.48;;;;;;;5.51;100.00;100652.72;5022797;28;20093;-76
2022/12/05 00:17:22;;;;;;;40.63;16.52;;;;;;;5.46;100.00;100654.38;5023452;28;20033;-76
2022/12/05 00:19:48;;;;;;;44.50;19.45;;;;;;;5.47;100.00;100654.38;5022645;28;20081;-75
2022/12/05 00:22:13;;;;;;;51.50;20.92;;;;;;;5.47;100.00;100653.50;5020944;28;20038;-76
2022/12/05 00:24:38;;;;;;;46.75;19.90;;;;;;;5.49;100.00;100651.81;5025195;28;20050;-76
2022/12/05 00:27:04;;;;;;;49.63;19.30;;;;;;;5.47;100.00;100657.00;5023305;28;20029;-76
2022/12/05 00:29:29;;;;;;;44.30;18.60;;;;;;;5.42;100.00;100650.84;5016408;28;20073;-75
2022/12/05 00:31:55;;;;;;;41.28;17.48;;;;;;;5.40;100.00;100654.28;5021423;28;20450;-76
2022/12/05 00:34:20;;;;;;;41.88;18.85;;;;;;;5.36;100.00;100650.72;5025364;28;20108;-76
2022/12/05 00:36:46;;;;;;;44.85;19.92;;;;;;;5.41;100.00;100648.19;5023430;28;20386;-76
2022/12/05 00:39:14;;;;;;;41.17;18.95;;;;;;;5.40;100.00;100649.06;5025522;28;20037;-76
2022/12/05 00:41:40;;;;;;;46.40;21.80;;;;;;;5.41;100.00;100648.19;5020107;28;20125;-75
2022/12/05 00:44:06;;;;;;;47.92;20.33;;;;;;;5.44;100.00;100651.72;5022480;28;20037;-76
2022/12/05 00:46:33;;;;;;;39.35;18.33;;;;;;;5.42;100.00;100655.16;5022924;28;20098;-75
2022/12/05 00:49:00;;;;;;;40.40;19.00;;;;;;;5.42;100.00;100660.41;5022116;28;20069;-76
2022/12/05 00:51:28;;;;;;;40.13;19.75;;;;;;;5.46;100.00;100654.38;5020081;28;20057;-76
2022/12/05 00:53:57;;;;;;;40.38;17.67;;;;;;;5.47;100.00;100658.75;5020100;28;20492;-76
2022/12/05 00:56:23;;;;;;;46.10;18.67;;;;;;;5.47;100.00;100657.00;5021596;28;20040;-76
2022/12/05 00:58:51;;;;;;;41.20;18.13;;;;;;;5.50;100.00;100648.31;5021832;28;20552;-76
2022/12/05 01:01:21;;;;;;;35.72;16.95;;;;;;;5.47;100.00;100654.38;5020146;28;20038;-75
2022/12/05 01:03:47;;;;;;;46.28;18.48;;;;;;;5.49;100.00;100657.03;5025750;28;20025;-76
2022/12/05 01:06:14;;;;;;;42.63;18.92;;;;;;;5.53;100.00;100652.72;5028288;28;20123;-76
2022/12/05 01:08:40;;;;;;;43.83;18.27;;;;;;;5.55;100.00;100662.38;5023250;28;20030;-76
2022/12/05 01:11:08;;;;;;;52.35;19.77;;;;;;;5.54;100.00;100659.75;5020497;28;20037;-76
2022/12/05 01:13:34;;;;;;;43.30;19.67;;;;;;;5.50;100.00;100661.41;5025661;28;20595;-75
2022/12/05 01:15:59;;;;;;;46.58;20.27;;;;;;;5.50;100.00;100664.03;5021773;28;20041;-76
2022/12/05 01:18:26;;;;;;;48.17;20.05;;;;;;;5.47;100.00;100658.75;5022189;28;20029;-76
2022/12/05 01:20:52;;;;;;;49.05;22.55;;;;;;;5.45;100.00;100665.72;5021063;28;20127;-76
2022/12/05 01:23:18;;;;;;;46.85;20.15;;;;;;;5.44;100.00;100669.16;5020682;28;20026;-75
2022/12/05 01:25:46;;;;;;;59.10;22.88;;;;;;;5.43;100.00;100657.81;5022034;28;20040;-75
2022/12/05 01:28:12;;;;;;;50.60;20.25;;;;;;;5.46;100.00;100662.22;5022764;28;20040;-75
2022/12/05 01:30:43;;;;;;;40.55;17.77;;;;;;;5.47;100.00;100669.22;5020077;28;20038;-75
2022/12/05 01:33:08;;;;;;;41.25;17.88;;;;;;;5.41;100.00;100661.28;5027634;28;20037;-75
2022/12/05 01:35:36;;;;;;;43.38;18.92;;;;;;;5.36;100.00;100660.31;5024338;28;20136;-75
2022/12/05 01:38:02;;;;;;;38.17;16.85;;;;;;;5.40;100.00;100664.75;5022831;28;20620;-75
2022/12/05 01:40:28;;;;;;;48.28;18.58;;;;;;;5.42;100.00;100658.69;5022536;28;20033;-75
2022/12/05 01:42:53;;;;;;;45.05;18.50;;;;;;;5.47;100.00;100658.75;5020262;28;20436;-76
2022/12/05 01:45:37;;;;;;;39.92;17.95;;;;;;;5.46;100.00;100657.00;5021042;28;20512;-75
2022/12/05 01:48:09;;;;;;;43.65;17.23;;;;;;;5.39;100.00;100658.63;5022231;28;20038;-76
2022/12/05 01:50:35;;;;;;;41.20;17.45;;;;;;;5.42;100.00;100655.16;5020559;28;20452;-75
2022/12/05 01:53:02;;;;;;;42.10;16.88;;;;;;;5.41;100.00;100656.91;5022106;28;20075;-75
2022/12/05 01:55:27;;;;;;;38.80;18.75;;;;;;;5.42;100.00;100653.47;5019014;28;20067;-75
2022/12/05 01:57:56;;;;;;;38.50;17.38;;;;;;;5.45;100.00;100652.63;5023151;28;20037;-76
2022/12/05 02:00:22;;;;;;;36.22;14.55;;;;;;;5.44;100.00;100649.09;5021207;28;20057;-76
2022/12/05 02:02:55;;;;;;;41.83;19.33;;;;;;;5.44;100.00;100648.22;5021161;28;20045;-75
2022/12/05 02:05:26;;;;;;;39.38;16.52;;;;;;;5.44;100.00;100648.22;5026748;28;20117;-76
2022/12/05 02:07:51;;;;;;;41.10;17.17;;;;;;;5.47;100.00;100649.16;5023146;28;20038;-75
2022/12/05 02:10:17;;;;;;;39.58;16.40;;;;;;;5.46;100.00;100650.00;5024538;28;20474;-75
2022/12/05 02:12:44;;;;;;;45.58;18.45;;;;;;;5.45;100.00;100653.50;5025232;28;20091;-75
2022/12/05 02:15:27;;;;;;;40.95;16.70;;;;;;;5.47;100.00;100658.75;5022899;28;20504;-75
2022/12/05 02:17:58;;;;;;;41.80;18.00;;;;;;;5.46;100.00;100654.38;5029434;28;20045;-76
2022/12/05 02:20:36;;;;;;;44.50;19.52;;;;;;;5.39;100.00;100656.00;5026015;28;20041;-75
2022/12/05 02:23:35;;;;;;;40.85;17.60;;;;;;;5.40;100.00;100659.53;5024980;28;20103;-76
2022/12/05 02:26:32;;;;;;;38.47;16.13;;;;;;;5.40;100.00;100651.66;5025697;28;20037;-75
2022/12/05 02:29:21;;;;;;;40.58;16.67;;;;;;;5.41;100.00;100653.41;5023124;28;20034;-76
2022/12/05 02:32:01;;;;;;;38.13;16.55;;;;;;;5.43;100.00;100652.59;5026037;28;20487;-75
2022/12/05 02:34:34;;;;;;;41.47;16.90;;;;;;;5.42;100.00;100644.69;5027208;28;20041;-76
2022/12/05 02:37:21;;;;;;;44.33;18.45;;;;;;;5.36;100.00;100649.84;5023395;28;20399;-76
2022/12/05 02:40:09;;;;;;;42.15;17.13;;;;;;;5.35;100.00;100658.56;5023104;28;20038;-76
2022/12/05 02:42:52;;;;;;;44.90;17.00;;;;;;;5.31;100.00;100648.88;5022898;28;20472;-76
2022/12/05 02:45:21;;;;;;;39.80;17.42;;;;;;;5.32;100.00;100653.25;5022100;28;20046;-76
2022/12/05 02:47:50;;;;;;;40.85;17.30;;;;;;;5.35;100.00;100650.72;5027698;28;20040;-76
2022/12/05 02:50:23;;;;;;;38.47;16.42;;;;;;;5.34;100.00;100654.16;5024264;28;20045;-75
2022/12/05 02:52:53;;;;;;;40.05;17.45;;;;;;;5.33;100.00;100649.78;5021950;28;20033;-75
2022/12/05 02:55:20;;;;;;;44.85;18.00;;;;;;;5.34;100.00;100651.53;5024447;28;20091;-75
2022/12/05 02:57:51;;;;;;;46.83;16.55;;;;;;;5.34;100.00;100649.81;5025141;28;20029;-75
2022/12/05 03:00:17;;;;;;;42.53;17.73;;;;;;;5.35;100.00;100642.84;5024927;28;20033;-75
2022/12/05 03:02:44;;;;;;;44.15;16.88;;;;;;;5.40;100.00;100641.19;5021830;28;20513;-75
2022/12/05 03:05:18;;;;;;;45.58;18.52;;;;;;;5.38;100.00;100641.16;5030861;28;20061;-75
2022/12/05 03:07:47;;;;;;;39.80;17.48;;;;;;;5.40;100.00;100641.19;5023564;28;20034;-75
2022/12/05 03:10:16;;;;;;;45.40;18.05;;;;;;;5.42;100.00;100639.47;5025011;28;20046;-75
2022/12/05 03:12:48;;;;;;;41.40;16.95;;;;;;;5.43;100.00;100646.47;5022512;28;20030;-76
2022/12/05 03:15:21;;;;;;;41.75;17.25;;;;;;;5.41;100.00;100637.72;5022919;28;20044;-76
2022/12/05 03:17:55;;;;;;;49.53;20.33;;;;;;;5.42;100.00;100644.69;5028285;28;20156;-75
2022/12/05 03:20:30;;;;;;;42.45;17.65;;;;;;;5.41;100.00;100642.94;5022780;28;20052;-75
2022/12/05 03:23:22;;;;;;;42.10;17.08;;;;;;;5.47;100.00;100640.41;5021501;28;20443;-75
2022/12/05 03:26:10;;;;;;;45.72;18.45;;;;;;;5.45;100.00;100637.78;5021211;28;20034;-76
2022/12/05 03:28:51;;;;;;;40.60;16.27;;;;;;;5.48;100.00;100643.06;5024356;28;20031;-75
2022/12/05 03:31:34;;;;;;;38.60;16.60;;;;;;;5.52;100.00;100638.75;5027770;28;20500;-75
2022/12/05 03:34:02;;;;;;;48.15;20.17;;;;;;;5.54;100.00;100634.44;5028194;28;20033;-75
2022/12/05 03:36:35;;;;;;;52.20;19.80;;;;;;;5.52;100.00;100635.25;5024232;28;20040;-75
2022/12/05 03:39:20;;;;;;;45.58;19.50;;;;;;;5.50;100.00;100637.84;5027640;28;20025;-75
2022/12/05 03:41:54;;;;;;;44.75;18.17;;;;;;;5.50;100.00;100640.47;5024793;28;20068;-76
2022/12/05 03:44:32;;;;;;;46.08;19.13;;;;;;;5.50;100.00;100640.47;5022650;28;20033;-76
2022/12/05 03:47:05;;;;;;;46.60;18.75;;;;;;;5.55;100.00;100646.66;5020694;28;20033;-76
2022/12/05 03:49:39;;;;;;;47.75;17.65;;;;;;;5.56;100.00;100637.09;5022629;28;20415;-75
2022/12/05 03:52:17;;;;;;;46.08;19.60;;;;;;;5.55;100.00;100645.78;5024582;28;20624;-76
2022/12/05 03:54:54;;;;;;;47.35;18.63;;;;;;;5.52;100.00;100641.38;5022588;28;20046;-75
2022/12/05 03:57:31;;;;;;;52.35;19.27;;;;;;;5.51;100.00;100639.63;5023373;28;20447;-76
2022/12/05 04:00:11;;;;;;;48.03;18.10;;;;;;;5.56;100.00;100652.81;5021898;28;20377;-76
2022/12/05 04:02:46;;;;;;;50.05;19.15;;;;;;;5.55;100.00;100649.28;5021872;28;20084;-76
2022/12/05 04:05:31;;;;;;;45.58;17.52;;;;;;;5.53;100.00;100653.63;5027748;28;20037;-76
2022/12/05 04:08:06;;;;;;;49.53;20.27;;;;;;;5.52;100.00;100650.97;5023757;28;20512;-76
2022/12/05 04:10:47;;;;;;;47.42;20.15;;;;;;;5.50;100.00;100650.94;5020986;28;20037;-75
2022/12/05 04:13:17;;;;;;;56.53;21.95;;;;;;;5.54;100.00;100659.75;5020815;28;20037;-75
2022/12/05 04:18:32;;;;;;;51.38;20.77;;;;;;;5.58;100.00;100656.28;5019928;28;20083;-76
2022/12/05 04:23:41;;;;;;;54.47;18.25;;;;;;;5.53;100.00;100653.63;5020684;28;20041;-76
2022/12/05 04:26:29;;;;;;;57.20;20.88;;;;;;;5.53;100.00;100657.97;5023161;28;20488;-75
2022/12/05 04:29:03;;;;;;;51.58;20.90;;;;;;;5.50;100.00;100656.16;5020899;28;20125;-76
2022/12/05 04:31:38;;;;;;;48.20;20.52;;;;;;;5.53;100.00;100657.97;5020724;28;20413;-75
2022/12/05 04:34:08;;;;;;;49.63;19.25;;;;;;;5.52;100.00;100654.47;5021343;28;20527;-76
2022/12/05 04:36:53;;;;;;;49.65;22.40;;;;;;;5.54;100.00;100654.50;5023610;28;20029;-75
2022/12/05 04:39:26;;;;;;;56.13;21.88;;;;;;;5.53;100.00;100655.34;5023437;28;20068;-75
2022/12/05 04:42:00;;;;;;;48.78;19.90;;;;;;;5.55;100.00;100659.75;5020391;22;20042;-73
2022/12/05 04:44:48;;;;;;;56.03;23.23;;;;;;;5.56;100.00;100656.28;5020492;28;20038;-73
2022/12/05 04:47:17;;;;;;;49.58;19.30;;;;;;;5.59;100.00;100656.34;5023618;28;20045;-73
2022/12/05 04:49:44;;;;;;;50.63;18.42;;;;;;;5.60;100.00;100652.84;5021531;28;20037;-73
2022/12/05 04:52:11;;;;;;;52.90;20.67;;;;;;;5.63;100.00;100660.78;5022174;28;20503;-74
2022/12/05 04:54:44;;;;;;;47.95;20.02;;;;;;;5.61;100.00;100652.00;5021752;28;20046;-74
2022/12/05 04:57:28;;;;;;;51.50;20.30;;;;;;;5.61;100.00;100656.38;5022744;28;20075;-73
2022/12/05 04:59:54;;;;;;;53.90;21.33;;;;;;;5.63;100.00;100660.78;5023200;28;20034;-73
2022/12/05 05:02:29;;;;;;;53.72;20.23;;;;;;;5.65;100.00;100663.41;5026568;28;20422;-74
2022/12/05 05:04:57;;;;;;;53.90;21.13;;;;;;;5.66;100.00;100668.69;5023489;28;20046;-73
2022/12/05 05:07:22;;;;;;;49.47;19.73;;;;;;;5.64;100.00;100662.53;5023119;28;20048;-74
2022/12/05 05:09:48;;;;;;;53.75;20.75;;;;;;;5.65;100.00;100668.63;5021848;28;20037;-73
2022/12/05 05:12:13;;;;;;;45.38;19.17;;;;;;;5.61;100.00;100670.34;5024459;28;20033;-73
2022/12/05 05:14:39;;;;;;;48.28;19.45;;;;;;;5.64;100.00;100664.28;5009431;28;20388;-73
2022/12/05 05:17:04;;;;;;;51.55;20.38;;;;;;;5.64;100.00;100665.16;5021698;28;20037;-73
2022/12/05 05:19:29;;;;;;;46.45;19.45;;;;;;;5.65;100.00;100672.13;5022315;28;20029;-73
2022/12/05 05:21:55;;;;;;;50.15;20.40;;;;;;;5.59;100.00;100663.31;5019407;28;20038;-74
2022/12/05 05:24:22;;;;;;;47.88;19.30;;;;;;;5.58;100.00;100662.44;5022588;28;20098;-74
2022/12/05 05:26:48;;;;;;;50.10;20.58;;;;;;;5.60;100.00;100673.78;5020502;28;20048;-73
2022/12/05 05:29:14;;;;;;;50.00;19.70;;;;;;;5.62;100.00;100669.47;5022776;28;20120;-73
2022/12/05 05:31:40;;;;;;;52.08;21.48;;;;;;;5.64;100.00;100670.38;5023040;28;20086;-74
2022/12/05 05:34:07;;;;;;;46.60;18.65;;;;;;;5.65;100.00;100669.50;5024934;28;20030;-73
2022/12/05 05:36:32;;;;;;;44.75;20.15;;;;;;;5.65;100.00;100669.50;5022757;28;20047;-74
2022/12/05 05:39:00;;;;;;;45.35;18.60;;;;;;;5.63;100.00;100666.03;5021956;28;20037;-74
2022/12/05 05:41:31;;;;;;;46.08;18.00;;;;;;;5.66;100.00;100671.31;5020122;28;20542;-73
2022/12/05 05:43:58;;;;;;;41.97;17.05;;;;;;;5.62;100.00;100673.84;5026981;28;20127;-73
2022/12/05 05:46:27;;;;;;;42.55;17.90;;;;;;;5.61;100.00;100672.97;5026330;28;20042;-74
2022/12/05 05:48:53;;;;;;;44.92;17.00;;;;;;;5.63;100.00;100676.50;5024821;28;20392;-74
2022/12/05 05:51:19;;;;;;;48.58;19.17;;;;;;;5.65;100.00;100674.75;5028344;28;20030;-73
2022/12/05 05:53:45;;;;;;;45.00;18.08;;;;;;;5.69;100.00;100673.97;5026011;28;20048;-73
2022/12/05 05:56:13;;;;;;;44.40;18.08;;;;;;;5.67;100.00;100680.03;5030214;28;20480;-74
2022/12/05 05:58:39;;;;;;;48.83;18.85;;;;;;;5.69;100.00;100683.56;5031789;28;20506;-74
2022/12/05 06:01:10;;;;;;;44.53;18.20;;;;;;;5.72;100.00;100680.97;5038074;28;20037;-74
2022/12/05 06:03:37;;;;;;;48.58;20.27;;;;;;;5.64;100.00;100683.47;5032852;28;20462;-74
2022/12/05 06:06:05;;;;;;;41.47;19.20;;;;;;;5.66;100.00;100681.78;5024713;28;20026;-74
2022/12/05 06:08:32;;;;;;;44.70;19.30;;;;;;;5.68;100.00;100687.00;5026225;28;20084;-74
2022/12/05 06:10:58;;;;;;;45.72;17.67;;;;;;;5.65;100.00;100692.22;5025592;28;20069;-74
2022/12/05 06:13:23;;;;;;;46.03;19.52;;;;;;;5.65;100.00;100692.22;5027090;28;20061;-74
2022/12/05 06:15:48;;;;;;;48.22;19.15;;;;;;;5.62;100.00;100690.41;5024078;28;20045;-74
2022/12/05 06:18:14;;;;;;;44.10;18.73;;;;;;;5.65;100.00;100698.31;5025476;28;20048;-74
2022/12/05 06:20:39;;;;;;;41.05;15.77;;;;;;;5.68;100.00;100695.75;5025342;28;20124;-74
2022/12/05 06:23:04;;;;;;;42.83;17.45;;;;;;;5.71;100.00;100690.59;5022385;28;20106;-74
2022/12/05 06:25:29;;;;;;;42.70;18.83;;;;;;;5.73;100.00;100698.44;5025349;28;20040;-73
2022/12/05 06:27:55;;;;;;;36.03;15.52;;;;;;;5.70;100.00;100704.50;5025628;28;20034;-74
2022/12/05 06:30:20;;;;;;;48.13;18.27;;;;;;;5.74;100.00;100699.31;5023749;28;20048;-74
2022/12/05 06:32:46;;;;;;;45.00;18.60;;;;;;;5.76;100.00;100697.63;5024459;28;20034;-74
2022/12/05 06:35:14;;;;;;;45.35;17.92;;;;;;;5.75;100.00;100706.34;5028201;28;20500;-74
2022/12/05 06:37:41;;;;;;;40.03;17.25;;;;;;;5.75;100.00;100711.56;5023797;28;20048;-73
2022/12/05 06:40:07;;;;;;;42.60;17.35;;;;;;;5.75;100.00;100707.22;5025096;28;20060;-74
2022/12/05 06:42:32;;;;;;;43.97;19.30;;;;;;;5.75;100.00;100706.34;5023250;28;20488;-74
2022/12/05 06:44:58;;;;;;;44.40;20.33;;;;;;;5.77;100.00;100709.88;5023797;28;20029;-74
2022/12/05 06:47:23;;;;;;;46.40;20.38;;;;;;;5.76;100.00;100708.97;5024724;28;20452;-74
2022/12/05 06:49:48;;;;;;;42.72;17.88;;;;;;;5.79;100.00;100724.75;5024853;28;20602;-74
2022/12/05 06:52:14;;;;;;;42.00;18.35;;;;;;;5.80;100.00;100725.63;5021957;28;20404;-74
2022/12/05 06:54:39;;;;;;;47.00;19.92;;;;;;;5.77;100.00;100728.22;5029716;28;20059;-73
2022/12/05 06:57:04;;;;;;;42.35;18.08;;;;;;;5.75;100.00;100724.66;5025508;28;20116;-73
2022/12/05 06:59:29;;;;;;;43.22;18.55;;;;;;;5.71;100.00;100727.25;5023192;28;20030;-74
2022/12/05 07:01:55;;;;;;;43.20;18.15;;;;;;;5.75;100.00;100732.53;5029173;28;20048;-73
2022/12/05 07:04:25;;;;;;;39.47;16.80;;;;;;;5.82;100.00;100731.78;5027851;28;20033;-74
2022/12/05 07:06:52;;;;;;;42.75;19.13;;;;;;;5.80;100.00;100736.09;5026677;28;20091;-73
2022/12/05 07:12:09;;;;;;;40.75;18.50;;;;;;;5.79;100.00;100735.22;5025249;28;20404;-74
2022/12/05 07:14:34;;;;;;;40.25;16.90;;;;;;;5.79;100.00;100745.72;5015592;28;20048;-74
2022/12/05 07:16:59;;;;;;;37.83;16.52;;;;;;;5.82;100.00;100750.13;5028873;28;20087;-73
2022/12/05 07:19:25;;;;;;;40.25;15.32;;;;;;;5.83;100.00;100738.78;5025494;28;20049;-74
2022/12/05 07:21:50;;;;;;;41.65;17.08;;;;;;;5.87;100.00;100746.72;5028357;28;20079;-74
2022/12/05 07:24:15;;;;;;;37.83;17.25;;;;;;;5.89;100.00;100746.72;5021501;28;20045;-74
2022/12/05 07:26:41;;;;;;;39.65;15.63;;;;;;;5.91;100.00;100747.63;5025016;28;20064;-74
2022/12/05 07:29:06;;;;;;;38.60;16.58;;;;;;;5.85;100.00;100739.69;5023707;28;20041;-73
2022/12/05 07:31:32;;;;;;;37.00;16.05;;;;;;;5.85;100.00;100745.81;5022846;28;20049;-73
2022/12/05 07:33:58;;;;;;;37.92;17.00;;;;;;;5.83;100.00;100755.38;5025352;28;20059;-73
2022/12/05 07:36:23;;;;;;;35.65;16.45;;;;;;;5.73;100.00;100756.06;5020499;28;20044;-73
2022/12/05 07:38:55;;;;;;;36.22;16.27;;;;;;;5.71;100.00;100761.28;5024744;28;20128;-73
2022/12/05 07:41:23;;;;;;;40.13;16.55;;;;;;;5.70;100.00;100751.66;5022147;28;20488;-73
2022/12/05 07:43:53;;;;;;;40.03;16.25;;;;;;;5.77;100.00;100754.41;5022315;28;20076;-74
2022/12/05 07:46:19;;;;;;;37.38;17.02;;;;;;;5.82;100.00;100755.34;5024123;28;20044;-73
2022/12/05 07:48:44;;;;;;;37.17;16.08;;;;;;;5.81;100.00;100743.97;5027539;28;20025;-74
2022/12/05 07:51:10;;;;;;;39.65;16.38;;;;;;;5.86;100.00;100751.91;5023570;28;20041;-73
2022/12/05 07:53:37;;;;;;;38.50;16.83;;;;;;;5.90;100.00;100753.75;5024366;28;20037;-74
2022/12/05 07:56:04;;;;;;;49.28;18.83;;;;;;;5.87;100.00;100737.97;5028505;28;20534;-74
2022/12/05 07:58:31;;;;;;;38.13;17.73;;;;;;;5.89;100.00;100741.47;5028145;28;20029;-73
2022/12/05 08:01:04;;;;;;;39.00;17.00;;;;;;;5.92;100.00;100738.91;5026675;28;20800;-74
2022/12/05 08:03:29;;;;;;;39.20;17.15;;;;;;;5.94;100.00;100750.31;5029482;28;20060;-74
2022/12/05 08:05:54;;;;;;;39.45;16.63;;;;;;;5.96;100.00;100753.88;5020603;28;20033;-74
2022/12/05 08:08:20;;;;;;;40.72;20.73;;;;;;;5.99;100.00;100755.66;5027521;28;20033;-74
2022/12/05 08:10:45;;;;;;;47.47;19.50;;;;;;;6.01;100.00;100761.81;5024501;28;20029;-73
2022/12/05 08:13:10;;;;;;;35.13;16.48;;;;;;;5.98;100.00;100752.16;5020400;28;20048;-73
2022/12/05 08:15:36;;;;;;;38.28;16.95;;;;;;;6.00;100.00;100753.06;5022843;28;20038;-74
2022/12/05 08:18:01;;;;;;;36.13;16.13;;;;;;;6.00;100.00;100754.78;5026317;28;20041;-74
2022/12/05 08:20:27;;;;;;;41.05;17.52;;;;;;;5.97;100.00;100760.84;5027638;28;20056;-74
2022/12/05 08:22:52;;;;;;;37.55;16.55;;;;;;;5.94;100.00;100755.56;5021458;28;20125;-74
2022/12/05 08:25:18;;;;;;;41.55;17.65;;;;;;;5.99;100.00;100764.38;5022724;28;20045;-74
2022/12/05 08:27:43;;;;;;;40.40;16.80;;;;;;;6.02;100.00;100767.06;5026128;28;20030;-74
2022/12/05 08:30:09;;;;;;;37.97;17.20;;;;;;;6.09;100.00;100771.53;5023421;28;20029;-74
2022/12/05 08:32:34;;;;;;;36.65;16.08;;;;;;;6.02;100.00;100763.56;5020924;28;20537;-74
2022/12/05 08:35:00;;;;;;;38.05;16.17;;;;;;;5.99;100.00;100777.47;5028663;28;20037;-74
2022/12/05 08:37:25;;;;;;;41.55;16.50;;;;;;;5.96;100.00;100772.19;5023071;28;20104;-73
2022/12/05 08:39:50;;;;;;;40.08;16.23;;;;;;;6.02;100.00;100774.03;5022695;28;20087;-74
2022/12/05 08:42:16;;;;;;;32.45;16.73;;;;;;;6.11;100.00;100776.81;5027594;28;20045;-74
2022/12/05 08:44:41;;;;;;;39.20;16.45;;;;;;;6.18;100.00;100776.03;5026769;28;20102;-74
2022/12/05 08:47:06;;;;;;;32.47;15.10;;;;;;;6.22;100.00;100782.22;5023090;28;20037;-74
2022/12/05 08:49:32;;;;;;;33.33;15.80;;;;;;;6.27;100.00;100780.56;5021001;28;20029;-74
2022/12/05 08:51:57;;;;;;;36.63;15.60;;;;;;;6.28;100.00;100782.31;5021584;28;20033;-74
2022/12/05 08:54:22;;;;;;;37.13;16.92;;;;;;;6.25;100.00;100785.75;5022247;28;20116;-74
2022/12/05 08:56:51;;;;;;;34.65;14.93;;;;;;;6.24;100.00;100793.63;5022035;28;20472;-74
2022/12/05 08:59:17;;;;;;;34.35;16.15;;;;;;;6.29;100.00;100794.56;5023438;28;20474;-74
2022/12/05 09:01:43;;;;;;;41.47;19.48;;;;;;;6.34;100.00;100792.88;5020329;28;20507;-74
2022/12/05 09:04:08;;;;;;;38.42;17.10;;;;;;;6.34;100.00;100790.25;5023868;28;20030;-74
2022/12/05 09:06:35;;;;;;;34.08;15.00;;;;;;;6.36;100.00;100785.94;5022511;28;20029;-74
2022/12/05 09:09:04;;;;;;;31.70;15.02;;;;;;;6.30;100.00;100785.84;5024260;28;20025;-74
2022/12/05 09:11:33;;;;;;;36.85;15.63;;;;;;;6.28;100.00;100787.56;5030431;28;20029;-74
2022/12/05 09:13:59;;;;;;;34.78;16.42;;;;;;;6.24;100.00;100791.00;5017781;28;20067;-74
2022/12/05 09:16:30;;;;;;;34.70;15.02;;;;;;;6.26;100.00;100800.66;5023479;28;20033;-74
2022/12/05 09:18:57;;;;;;;38.40;17.33;;;;;;;6.34;100.00;100787.63;5023108;28;20037;-74
2022/12/05 09:21:25;;;;;;;35.05;15.63;;;;;;;6.40;100.00;100793.00;5019560;28;20504;-73
2022/12/05 09:23:51;;;;;;;38.03;16.48;;;;;;;6.45;100.00;100796.56;5021972;28;20041;-74
2022/12/05 09:26:18;;;;;;;34.78;15.60;;;;;;;6.50;100.00;100794.03;5020781;28;20038;-74
2022/12/05 09:28:43;;;;;;;36.78;16.13;;;;;;;6.46;100.00;100792.19;5023374;28;20038;-74
2022/12/05 09:31:12;;;;;;;36.58;16.25;;;;;;;6.33;100.00;100791.13;5022045;28;20082;-74
2022/12/05 09:33:38;;;;;;;41.60;17.98;;;;;;;6.28;100.00;100793.66;5023748;28;20049;-74
2022/12/05 09:36:05;;;;;;;38.15;17.52;;;;;;;6.35;100.00;100792.91;5019917;28;20038;-74
2022/12/05 09:38:31;;;;;;;39.50;18.45;;;;;;;6.47;100.00;100793.94;5021650;28;20042;-74
2022/12/05 09:44:48;;;;;;;42.22;19.35;;;;;;;6.77;100.00;100801.38;5025428;28;20045;-74
2022/12/05 09:47:22;;;;;;;40.38;18.23;;;;;;;6.84;100.00;100792.75;5023452;28;20108;-74
2022/12/05 09:50:18;;;;;;;36.38;16.67;;;;;;;6.85;100.00;100799.75;5021603;28;20025;-74
2022/12/05 09:53:01;;;;;;;44.10;19.38;;;;;;;6.98;100.00;100791.16;5019470;28;20041;-74
2022/12/05 09:55:50;;;;;;;51.38;20.85;;;;;;;7.05;100.00;100791.22;5024494;28;20096;-74
2022/12/05 09:59:01;;;;;;;39.10;18.88;;;;;;;7.03;100.00;100799.09;5027925;28;20444;-74
2022/12/05 10:01:40;;;;;;;40.42;18.08;;;;;;;7.02;100.00;100800.84;5015702;28;20099;-74
2022/12/05 10:04:28;;;;;;;43.20;18.60;;;;;;;6.92;100.00;100811.22;5023222;28;20040;-74
2022/12/05 10:07:16;;;;;;;36.42;17.08;;;;;;;6.80;100.00;100804.03;5023954;28;20033;-74
2022/12/05 10:09:49;;;;;;;35.97;17.40;;;;;;;6.87;100.00;100797.16;5022425;28;20033;-74
2022/12/05 10:12:49;;;;;;;33.60;16.48;;;;;;;6.98;100.00;100788.53;5024167;28;20091;-74
2022/12/05 10:15:28;;;;;;;30.17;14.32;;;;;;;6.99;100.00;100787.66;5018343;28;20030;-74
2022/12/05 10:18:08;;;;;;;34.70;16.05;;;;;;;7.07;100.00;100789.50;5027561;28;20506;-74
2022/12/05 10:20:43;;;;;;;41.38;18.70;;;;;;;7.16;100.00;100789.63;5025893;28;20034;-74
2022/12/05 10:23:16;;;;;;;43.30;19.02;;;;;;;7.07;100.00;100787.75;5020063;28;20100;-74
2022/12/05 10:25:42;;;;;;;37.30;18.20;;;;;;;7.08;100.00;100788.66;5019247;28;20033;-74
2022/12/05 10:28:23;;;;;;;41.25;17.98;;;;;;;7.13;100.00;100789.59;5025748;28;20037;-74
2022/12/05 10:30:52;;;;;;;40.72;18.77;;;;;;;7.15;100.00;100785.22;5024164;28;20526;-74
2022/12/05 10:33:20;;;;;;;34.55;16.23;;;;;;;7.21;100.00;100795.81;5027830;28;20059;-74
2022/12/05 10:35:49;;;;;;;37.70;17.63;;;;;;;7.18;100.00;100791.41;5022573;28;20041;-74
2022/12/05 10:38:31;;;;;;;37.97;16.48;;;;;;;7.21;100.00;100803.69;5026176;28;20029;-74
2022/12/05 10:41:00;;;;;;;36.35;17.45;;;;;;;7.18;100.00;100803.66;5024156;28;20052;-74
2022/12/05 10:43:29;;;;;;;34.67;15.63;;;;;;;7.13;100.00;100800.09;5024774;28;20116;-74
2022/12/05 10:45:54;;;;;;;39.50;18.15;;;;;;;7.13;100.00;100798.34;5023549;28;20112;-74
2022/12/05 10:48:21;;;;;;;36.53;16.50;;;;;;;7.18;100.00;100801.03;5027040;28;20556;-74
2022/12/05 10:50:52;;;;;;;39.28;17.42;;;;;;;7.15;100.00;100800.97;5040525;22;20071;-76
2022/12/05 10:53:26;;;;;;;33.50;15.88;;;;;;;7.14;100.00;100802.72;5026962;28;20038;-76
2022/12/05 10:55:52;;;;;;;43.33;19.25;;;;;;;7.15;100.00;100804.50;5025551;28;20048;-76
2022/12/05 10:58:25;;;;;;;33.72;16.08;;;;;;;7.19;100.00;100803.66;5025240;28;20033;-76
2022/12/05 11:00:56;;;;;;;39.63;16.23;;;;;;;7.22;100.00;100797.56;5022254;28;20495;-76
2022/12/05 11:03:34;;;;;;;40.08;18.27;;;;;;;7.20;100.00;100799.28;5028632;28;20031;-76
2022/12/05 11:06:02;;;;;;;33.00;17.00;;;;;;;7.19;100.00;100797.53;5023096;28;20038;-76
2022/12/05 11:08:32;;;;;;;34.72;16.58;;;;;;;7.18;100.00;100798.41;5027994;28;20045;-76
2022/12/05 11:11:04;;;;;;;34.00;16.10;;;;;;;7.29;100.00;100799.41;5025806;28;20028;-76
2022/12/05 11:13:31;;;;;;;37.28;16.77;;;;;;;7.33;100.00;100795.06;5027205;28;20041;-76
2022/12/05 11:15:57;;;;;;;34.97;16.60;;;;;;;7.33;100.00;100793.31;5030335;28;20034;-76
2022/12/05 11:18:28;;;;;;;34.35;16.90;;;;;;;7.30;100.00;100793.28;5004870;28;20400;-76
2022/12/05 11:20:55;;;;;;;35.53;17.27;;;;;;;7.37;100.00;100791.63;5024427;28;20041;-76
2022/12/05 11:23:29;;;;;;;30.58;15.27;;;;;;;7.47;100.00;100783.88;5026446;28;20037;-76
2022/12/05 11:25:57;;;;;;;36.47;17.02;;;;;;;7.49;100.00;100783.84;5022463;28;20033;-75
2022/12/05 11:28:31;;;;;;;34.50;17.55;;;;;;;7.41;100.00;100781.19;5028216;28;20413;-75
2022/12/05 11:31:15;;;;;;;31.45;16.55;;;;;;;7.52;100.00;100785.63;5022968;28;20391;-75
2022/12/05 11:33:40;;;;;;;39.13;18.02;;;;;;;7.58;100.00;100785.72;5025292;28;20034;-76